PAL333 RPLL-RPVM
Flight info
| Callsign | PAL333 |
|---|---|
| Flight time | N/A |
| Altitude | 35000 |
| Route | IPATA2R IPATA W25 BATAY BATAY3P |
| Aircraft | A35K/H-SDE2E3GHIJ3J4J5LM1ORWXY/LB1D1 |
Departure
| Time | 2026-05-04 12:32 |
|---|---|
| Airport | Ninoy Aquino International Airport (RPLL) |
Arrival
| Time | N/A |
|---|---|
| Airport | Mactan Cebu International Airport (RPVM) |
| Time | Latitude | Longitude | Altitude | Speed | Heading |
|---|---|---|---|---|---|
| 2026-05-04 12:07 | 14.50426 | 121.00517 | 57 ft | 0 kts | 307° |
| 2026-05-04 12:21 | 14.50425 | 121.00518 | 57 ft | 2 kts | 307° |
| 2026-05-04 12:21 | 14.50415 | 121.00532 | 57 ft | 2 kts | 307° |
| 2026-05-04 12:21 | 14.50406 | 121.00546 | 58 ft | 2 kts | 307° |
| 2026-05-04 12:21 | 14.50396 | 121.00559 | 58 ft | 2 kts | 308° |
| 2026-05-04 12:22 | 14.50385 | 121.00572 | 59 ft | 2 kts | 308° |
| 2026-05-04 12:22 | 14.50376 | 121.00586 | 59 ft | 2 kts | 299° |
| 2026-05-04 12:22 | 14.50369 | 121.00601 | 59 ft | 2 kts | 281° |
| 2026-05-04 12:22 | 14.50369 | 121.00618 | 59 ft | 2 kts | 258° |
| 2026-05-04 12:23 | 14.50371 | 121.00626 | 59 ft | 0 kts | 247° |
| 2026-05-04 12:27 | 14.50370 | 121.00625 | 69 ft | 1 kts | 247° |
| 2026-05-04 12:27 | 14.50363 | 121.00608 | 61 ft | 5 kts | 247° |
| 2026-05-04 12:27 | 14.50340 | 121.00571 | 59 ft | 8 kts | 237° |
| 2026-05-04 12:28 | 14.50303 | 121.00511 | 60 ft | 12 kts | 239° |
| 2026-05-04 12:28 | 14.50254 | 121.00426 | 64 ft | 15 kts | 239° |
| 2026-05-04 12:28 | 14.50223 | 121.00370 | 59 ft | 9 kts | 240° |
| 2026-05-04 12:28 | 14.50180 | 121.00338 | 65 ft | 7 kts | 184° |
| 2026-05-04 12:29 | 14.50133 | 121.00332 | 64 ft | 7 kts | 205° |
| 2026-05-04 12:29 | 14.50098 | 121.00291 | 61 ft | 9 kts | 237° |
| 2026-05-04 12:29 | 14.50061 | 121.00228 | 61 ft | 12 kts | 239° |
| 2026-05-04 12:29 | 14.50013 | 121.00144 | 63 ft | 15 kts | 240° |
| 2026-05-04 12:30 | 14.49962 | 121.00049 | 64 ft | 14 kts | 240° |
| 2026-05-04 12:30 | 14.49923 | 120.99986 | 64 ft | 7 kts | 225° |
| 2026-05-04 12:30 | 14.49878 | 120.99973 | 68 ft | 6 kts | 173° |
| 2026-05-04 12:30 | 14.49831 | 120.99993 | 68 ft | 8 kts | 149° |
| 2026-05-04 12:31 | 14.49815 | 121.00047 | 65 ft | 9 kts | 76° |
| 2026-05-04 12:31 | 14.49839 | 121.00103 | 65 ft | 0 kts | 60° |
| 2026-05-04 12:31 | 14.49850 | 121.00123 | 64 ft | 9 kts | 60° |
| 2026-05-04 12:32 | 14.50009 | 121.00409 | 61 ft | 86 kts | 60° |
| 2026-05-04 12:32 | 14.51008 | 121.02199 | 626 ft | 169 kts | 61° |
| 2026-05-04 12:32 | 14.51603 | 121.03229 | 1469 ft | 167 kts | 61° |
| 2026-05-04 12:33 | 14.52221 | 121.04289 | 2056 ft | 181 kts | 60° |
| 2026-05-04 12:33 | 14.52889 | 121.05456 | 2510 ft | 199 kts | 62° |
| 2026-05-04 12:33 | 14.53599 | 121.06783 | 2916 ft | 220 kts | 62° |
| 2026-05-04 12:33 | 14.54376 | 121.08233 | 3387 ft | 241 kts | 62° |
| 2026-05-04 12:34 | 14.55212 | 121.09765 | 4078 ft | 251 kts | 61° |
| 2026-05-04 12:34 | 14.56088 | 121.11357 | 4868 ft | 258 kts | 61° |
| 2026-05-04 12:34 | 14.56854 | 121.13044 | 5660 ft | 264 kts | 75° |
| 2026-05-04 12:34 | 14.56894 | 121.14946 | 6456 ft | 272 kts | 100° |
| 2026-05-04 12:35 | 14.56095 | 121.16722 | 7313 ft | 277 kts | 122° |
| 2026-05-04 12:35 | 14.54877 | 121.18281 | 8212 ft | 282 kts | 131° |
| 2026-05-04 12:35 | 14.53470 | 121.19709 | 9157 ft | 285 kts | 133° |
| 2026-05-04 12:35 | 14.52016 | 121.21114 | 10078 ft | 288 kts | 134° |
| 2026-05-04 12:36 | 14.50525 | 121.22528 | 10660 ft | 304 kts | 134° |
| 2026-05-04 12:36 | 14.48906 | 121.24048 | 11026 ft | 325 kts | 135° |
| 2026-05-04 12:36 | 14.47174 | 121.25658 | 11387 ft | 345 kts | 136° |
| 2026-05-04 12:36 | 14.45342 | 121.27352 | 11740 ft | 362 kts | 136° |
| 2026-05-04 12:37 | 14.43441 | 121.29104 | 12293 ft | 370 kts | 136° |
| 2026-05-04 12:37 | 14.41511 | 121.30881 | 12995 ft | 373 kts | 136° |
| 2026-05-04 12:37 | 14.39568 | 121.32670 | 13713 ft | 376 kts | 136° |
| 2026-05-04 12:37 | 14.37611 | 121.34473 | 14289 ft | 380 kts | 137° |
| 2026-05-04 12:38 | 14.35626 | 121.36300 | 14833 ft | 385 kts | 137° |
| 2026-05-04 12:38 | 14.34951 | 121.36921 | 15016 ft | 386 kts | 137° |